Time;durP1;ratioP1;P1;durP2;ratioP2;P2;SDS_P1;SDS_P2;PMS_P1;PMS_P2;Temp;Humidity;BMP_temperature;BMP_pressure;BME280_temperature;BME280_humidity;BME280_pressure;Samples;Min_cycle;Max_cycle;Signal;HPM_P1;HPM_P2
2023/03/12 00:02:21;;;;;;;3.07;1.63;;;;;;;0.78;67.87;98951.50;5013724;28;20329;-82
2023/03/12 00:04:47;;;;;;;4.00;1.90;;;;;;;0.78;67.85;98955.94;5028367;28;20202;-84
2023/03/12 00:07:14;;;;;;;2.00;1.80;;;;;;;0.74;68.18;98963.41;5038169;28;20190;-87
2023/03/12 00:09:44;;;;;;;3.33;1.50;;;;;;;0.74;68.01;98960.75;5035694;28;20264;-83
2023/03/12 00:12:11;;;;;;;2.13;1.73;;;;;;;0.70;68.38;98964.69;5017168;28;20203;-84
2023/03/12 00:14:38;;;;;;;2.10;1.70;;;;;;;0.52;68.72;98968.59;5032728;28;20901;-83
2023/03/12 00:17:04;;;;;;;2.23;1.73;;;;;;;0.49;69.07;98972.41;5014109;28;20201;-83
2023/03/12 00:19:31;;;;;;;1.90;1.70;;;;;;;0.47;68.90;98971.72;5035804;28;20194;-84
2023/03/12 00:21:58;;;;;;;2.33;1.80;;;;;;;0.47;69.52;98976.22;5035478;28;20186;-82
2023/03/12 00:24:24;;;;;;;2.17;1.83;;;;;;;0.37;69.56;98979.06;5036314;28;20190;-85
2023/03/12 00:26:51;;;;;;;3.37;2.03;;;;;;;0.29;70.27;98982.50;5035111;28;20197;-81
2023/03/12 00:29:18;;;;;;;2.87;1.87;;;;;;;0.21;70.44;98985.19;5036235;28;20197;-85
2023/03/12 00:31:45;;;;;;;2.30;1.90;;;;;;;0.14;70.75;98983.41;5018914;28;20301;-83
2023/03/12 00:34:12;;;;;;;2.23;1.60;;;;;;;0.11;71.29;98983.72;5018355;28;20210;-83
2023/03/12 00:36:40;;;;;;;3.53;1.83;;;;;;;0.13;70.82;98989.66;5009481;28;20203;-83
2023/03/12 00:39:07;;;;;;;1.63;1.53;;;;;;;0.01;70.63;98983.91;5034006;28;20198;-82
2023/03/12 00:41:33;;;;;;;1.73;1.60;;;;;;;-0.09;71.30;98989.34;5035077;28;20214;-85
2023/03/12 00:44:00;;;;;;;2.77;2.33;;;;;;;-0.15;71.54;98986.59;5034963;28;20203;-81
2023/03/12 00:46:27;;;;;;;2.87;2.57;;;;;;;-0.22;71.23;98991.69;5007990;28;20269;-81
2023/03/12 00:48:56;;;;;;;3.23;2.37;;;;;;;-0.30;71.47;98991.69;5015714;28;20289;-81
2023/03/12 00:51:23;;;;;;;4.03;2.40;;;;;;;-0.36;71.80;98997.63;5036151;28;20222;-81
2023/03/12 00:53:50;;;;;;;2.83;1.87;;;;;;;-0.37;72.57;99001.22;5017069;28;20661;-83
2023/03/12 00:56:17;;;;;;;2.67;1.97;;;;;;;-0.43;72.45;98987.94;5046250;28;20190;-82
2023/03/12 00:58:44;;;;;;;2.60;1.83;;;;;;;-0.44;72.45;98995.00;5034349;28;20190;-82
2023/03/12 01:01:11;;;;;;;2.10;1.80;;;;;;;-0.59;73.17;98986.94;5029026;28;20607;-82
2023/03/12 01:03:38;;;;;;;3.37;1.83;;;;;;;-0.67;74.03;98988.75;5030982;28;20195;-82
2023/03/12 01:06:05;;;;;;;2.20;2.00;;;;;;;-0.69;74.41;98996.78;5033742;28;20191;-84
2023/03/12 01:08:34;;;;;;;2.50;1.83;;;;;;;-0.76;74.66;98990.56;5007877;28;20201;-84
2023/03/12 01:11:00;;;;;;;2.77;1.83;;;;;;;-0.83;75.34;98997.44;5015661;28;20213;-83
2023/03/12 01:13:28;;;;;;;1.70;1.57;;;;;;;-0.81;75.56;98997.28;4999113;28;20725;-81
2023/03/12 01:15:55;;;;;;;2.60;1.90;;;;;;;-0.81;76.01;99006.00;5009986;28;20606;-80
2023/03/12 01:18:23;;;;;;;2.57;1.97;;;;;;;-0.83;76.38;98991.34;5029217;28;20194;-80
2023/03/12 01:20:50;;;;;;;3.10;1.97;;;;;;;-0.92;77.05;99001.88;5034469;28;20194;-82
2023/03/12 01:23:17;;;;;;;3.23;1.93;;;;;;;-0.86;76.41;98999.56;5029952;28;20217;-81
2023/03/12 01:25:43;;;;;;;2.80;1.90;;;;;;;-1.02;77.90;98998.56;5032424;28;20190;-81
2023/03/12 01:28:10;;;;;;;2.33;1.67;;;;;;;-1.07;78.08;98995.59;5010392;28;20214;-81
2023/03/12 01:30:37;;;;;;;2.50;1.90;;;;;;;-1.15;78.47;98997.38;5016140;28;20281;-83
2023/03/12 01:33:03;;;;;;;2.10;1.80;;;;;;;-1.14;78.97;98994.59;5033310;28;20301;-82
2023/03/12 01:35:35;;;;;;;2.27;1.80;;;;;;;-1.08;78.96;99003.66;5034522;28;20214;-82
2023/03/12 01:38:02;;;;;;;1.83;1.60;;;;;;;-1.14;79.58;98999.03;5033752;28;20186;-83
2023/03/12 01:40:32;;;;;;;3.13;1.83;;;;;;;-1.10;79.76;98998.53;5030698;28;20222;-82
2023/03/12 01:43:21;;;;;;;3.50;1.80;;;;;;;-1.11;80.04;99006.59;4996677;28;20616;-81
2023/03/12 01:46:05;;;;;;;3.00;1.70;;;;;;;-1.16;80.35;99012.31;5017702;28;20214;-82
2023/03/12 01:52:26;;;;;;;2.97;1.67;;;;;;;-1.17;81.74;99033.53;5034533;28;20765;-80
2023/03/12 01:55:08;;;;;;;2.40;1.97;;;;;;;-1.20;82.71;99034.66;5028254;28;20210;-82
2023/03/12 01:57:50;;;;;;;2.43;1.73;;;;;;;-1.13;82.79;99038.31;5031772;28;20198;-84
2023/03/12 02:00:21;;;;;;;2.77;1.67;;;;;;;-0.96;83.30;99041.78;5000438;28;20198;-81
2023/03/12 02:02:50;;;;;;;2.47;1.50;;;;;;;-0.82;83.50;99048.22;5016963;28;20329;-81
2023/03/12 02:05:36;;;;;;;3.73;1.67;;;;;;;-0.92;83.30;99036.06;5017553;28;20202;-82
2023/03/12 02:08:04;;;;;;;2.27;1.50;;;;;;;-0.90;83.61;99028.00;5029064;28;20222;-82
2023/03/12 02:10:31;;;;;;;2.70;1.67;;;;;;;-0.89;82.66;99022.56;4997335;28;20227;-83
2023/03/12 02:12:57;;;;;;;2.20;1.57;;;;;;;-0.92;83.45;99022.06;5031417;28;20710;-81
2023/03/12 02:15:25;;;;;;;3.20;1.60;;;;;;;-1.02;83.49;99024.84;5016080;28;20309;-81
2023/03/12 02:17:53;;;;;;;2.43;1.50;;;;;;;-1.00;83.68;99011.53;5016184;28;20205;-83
2023/03/12 02:20:26;;;;;;;2.67;1.70;;;;;;;-0.88;83.13;99011.06;5032664;28;20243;-81
2023/03/12 02:23:02;;;;;;;3.27;1.80;;;;;;;-0.94;83.46;99027.50;5027905;28;20709;-82
2023/03/12 02:25:37;;;;;;;2.53;1.63;;;;;;;-0.98;84.19;99026.16;5008039;28;20214;-82
2023/03/12 02:28:08;;;;;;;3.73;1.80;;;;;;;-0.89;83.81;99033.09;5015331;28;20201;-81
2023/03/12 02:30:36;;;;;;;2.43;2.07;;;;;;;-0.94;83.82;99029.31;5015276;28;20224;-81
2023/03/12 02:33:06;;;;;;;1.57;1.47;;;;;;;-1.04;83.75;99032.09;5011154;28;20202;-84
2023/03/12 02:35:33;;;;;;;2.93;1.90;;;;;;;-0.95;83.43;99031.13;5032503;28;20210;-81
2023/03/12 02:37:59;;;;;;;2.73;1.70;;;;;;;-1.05;83.93;99033.06;5026880;28;20194;-81
2023/03/12 02:40:30;;;;;;;2.30;1.70;;;;;;;-1.05;84.52;99046.22;5028202;28;20191;-81
2023/03/12 02:42:57;;;;;;;2.60;1.70;;;;;;;-1.01;83.53;99044.06;5014890;28;20213;-84
2023/03/12 02:45:25;;;;;;;3.40;1.90;;;;;;;-1.10;83.88;99047.66;5032630;28;20305;-83
2023/03/12 02:47:52;;;;;;;2.80;2.07;;;;;;;-1.16;84.25;99051.75;5009391;28;20190;-82
2023/03/12 02:50:21;;;;;;;3.53;1.90;;;;;;;-1.20;84.24;99052.22;5015009;28;20209;-81
2023/03/12 02:52:48;;;;;;;2.63;1.80;;;;;;;-1.26;85.03;99052.88;5030683;28;20194;-82
2023/03/12 02:55:15;;;;;;;2.73;1.77;;;;;;;-1.31;85.34;99065.66;5015838;28;20202;-82
2023/03/12 02:57:42;;;;;;;3.57;1.83;;;;;;;-1.30;85.58;99062.88;5015304;28;20229;-81
2023/03/12 03:00:14;;;;;;;2.20;1.80;;;;;;;-1.33;85.65;99069.28;5007358;28;20214;-81
2023/03/12 03:02:45;;;;;;;2.57;1.83;;;;;;;-1.31;85.91;99074.38;5012861;28;20202;-82
2023/03/12 03:05:15;;;;;;;2.30;1.90;;;;;;;-1.35;86.08;99083.53;5025561;28;20198;-83
2023/03/12 03:07:41;;;;;;;2.33;1.83;;;;;;;-1.32;86.52;99083.25;5032719;28;20240;-80
2023/03/12 03:10:09;;;;;;;3.27;2.10;;;;;;;-1.33;86.79;99079.78;5031680;28;20216;-82
2023/03/12 03:12:36;;;;;;;2.83;1.93;;;;;;;-1.28;87.04;99076.69;5007360;28;20202;-81
2023/03/12 03:15:04;;;;;;;2.80;1.97;;;;;;;-1.26;86.99;99090.47;5027693;28;20268;-83
2023/03/12 03:17:31;;;;;;;2.37;1.80;;;;;;;-1.20;86.95;99068.81;5033362;28;20195;-82
2023/03/12 03:19:58;;;;;;;3.60;2.33;;;;;;;-1.24;86.88;99085.06;5015889;28;20202;-81
2023/03/12 03:22:24;;;;;;;3.43;2.07;;;;;;;-1.25;87.03;99092.13;5032405;28;20195;-81
2023/03/12 03:24:52;;;;;;;3.43;2.20;;;;;;;-1.27;87.34;99093.28;5032048;28;20190;-81
2023/03/12 03:27:19;;;;;;;4.37;2.83;;;;;;;-1.22;87.79;99091.00;5031985;28;20206;-82
2023/03/12 03:29:46;;;;;;;3.47;2.70;;;;;;;-1.24;87.87;99101.66;5032157;28;20191;-82
2023/03/12 03:32:13;;;;;;;4.27;2.87;;;;;;;-1.27;88.22;99101.16;5015616;28;20549;-80
2023/03/12 03:34:40;;;;;;;5.33;2.87;;;;;;;-1.25;88.94;99109.69;4999433;28;20698;-83
2023/03/12 03:37:07;;;;;;;5.10;3.60;;;;;;;-1.25;88.96;99110.53;5015658;28;20202;-83
2023/03/12 03:39:35;;;;;;;6.53;3.70;;;;;;;-1.21;89.02;99111.06;5023790;28;20228;-82
2023/03/12 03:42:01;;;;;;;7.70;5.00;;;;;;;-1.23;89.10;99113.00;5033175;28;20658;-82
2023/03/12 03:44:32;;;;;;;10.70;6.03;;;;;;;-1.23;89.38;99115.63;5000492;28;20195;-81
2023/03/12 03:46:59;;;;;;;14.83;8.10;;;;;;;-1.22;89.52;99120.75;5015581;28;20685;-82
2023/03/12 03:49:26;;;;;;;12.83;7.50;;;;;;;-1.20;89.40;99123.19;5027826;28;20226;-80
2023/03/12 03:51:52;;;;;;;10.63;6.70;;;;;;;-1.22;89.27;99115.50;5019495;28;20229;-84
2023/03/12 03:54:29;;;;;;;11.77;7.53;;;;;;;-1.26;89.61;99119.38;5016644;28;20245;-80
2023/03/12 03:56:57;;;;;;;11.57;6.07;;;;;;;-1.22;89.46;99117.28;5031733;28;20197;-81
2023/03/12 03:59:24;;;;;;;6.43;3.57;;;;;;;-1.22;89.97;99120.75;5031676;28;20277;-83
2023/03/12 04:01:51;;;;;;;6.93;3.70;;;;;;;-1.24;90.47;99125.31;5032847;28;20269;-82
2023/03/12 04:04:17;;;;;;;5.17;3.80;;;;;;;-1.20;90.21;99124.03;5034885;28;20229;-82
2023/03/12 04:06:44;;;;;;;5.17;3.30;;;;;;;-1.20;90.04;99117.94;5036997;28;20193;-81
2023/03/12 04:09:12;;;;;;;7.13;3.43;;;;;;;-1.22;90.28;99123.38;5017687;28;20226;-82
2023/03/12 04:11:39;;;;;;;5.53;3.43;;;;;;;-1.26;89.90;99124.66;5008822;28;20659;-80
2023/03/12 04:14:07;;;;;;;3.83;2.83;;;;;;;-1.16;89.41;99124.53;5009675;28;20233;-81
2023/03/12 04:16:36;;;;;;;4.37;3.27;;;;;;;-1.23;89.48;99134.03;5030106;28;20277;-81
2023/03/12 04:19:03;;;;;;;4.27;3.03;;;;;;;-1.27;89.50;99130.91;5025510;28;20596;-81
2023/03/12 04:21:30;;;;;;;4.10;3.00;;;;;;;-1.14;89.08;99138.34;5025695;28;20186;-81
2023/03/12 04:23:57;;;;;;;4.90;3.37;;;;;;;-1.14;89.07;99144.44;5001355;28;20203;-82
2023/03/12 04:26:28;;;;;;;4.00;3.00;;;;;;;-1.26;89.68;99137.78;5031836;28;20278;-81
2023/03/12 04:28:55;;;;;;;4.07;2.90;;;;;;;-1.29;89.57;99134.66;5010740;28;20204;-83
2023/03/12 04:31:22;;;;;;;3.50;2.60;;;;;;;-1.26;88.86;99144.88;5011609;28;20196;-83
2023/03/12 04:33:49;;;;;;;4.17;2.97;;;;;;;-1.24;89.75;99150.78;5015021;28;20229;-81
2023/03/12 04:36:18;;;;;;;4.40;2.83;;;;;;;-1.31;89.42;99155.03;5031430;28;20317;-83
2023/03/12 04:38:47;;;;;;;4.93;3.20;;;;;;;-1.46;89.79;99160.84;5028302;28;20206;-81
2023/03/12 04:41:16;;;;;;;3.87;2.80;;;;;;;-1.48;90.46;99167.22;5018054;28;20198;-84
2023/03/12 04:43:48;;;;;;;4.07;3.03;;;;;;;-1.58;91.18;99156.81;5018899;28;20194;-82
2023/03/12 04:46:16;;;;;;;4.13;2.63;;;;;;;-1.59;90.59;99168.31;5034718;28;20277;-81
2023/03/12 04:48:43;;;;;;;4.90;3.27;;;;;;;-1.63;90.80;99168.78;5034910;28;20663;-81
2023/03/12 04:51:11;;;;;;;3.63;2.50;;;;;;;-1.64;90.76;99178.47;5026607;28;20194;-85
2023/03/12 04:53:39;;;;;;;3.80;2.53;;;;;;;-1.66;89.75;99172.53;5030215;28;20198;-81
2023/03/12 04:56:08;;;;;;;2.47;2.13;;;;;;;-1.68;90.08;99173.66;5016778;28;20224;-83
2023/03/12 04:58:35;;;;;;;2.87;2.30;;;;;;;-1.76;90.23;99177.03;5032036;28;20272;-81
2023/03/12 05:01:04;;;;;;;4.47;2.50;;;;;;;-1.67;90.04;99178.75;5034203;28;20190;-80
2023/03/12 05:03:31;;;;;;;4.27;2.53;;;;;;;-1.72;89.91;99181.00;5018021;28;20205;-82
2023/03/12 05:05:59;;;;;;;2.50;2.00;;;;;;;-1.79;90.46;99186.06;5034098;28;20206;-81
2023/03/12 05:08:25;;;;;;;3.13;2.30;;;;;;;-1.87;90.41;99180.72;5035021;28;20202;-82
2023/03/12 05:10:52;;;;;;;2.90;2.50;;;;;;;-1.90;90.56;99193.34;5015470;28;20211;-83
2023/03/12 05:13:21;;;;;;;2.77;2.23;;;;;;;-1.75;89.91;99191.81;5001220;28;20249;-80
2023/03/12 05:15:51;;;;;;;3.60;2.23;;;;;;;-1.85;90.05;99194.53;5030759;28;20781;-82
2023/03/12 05:18:21;;;;;;;4.13;2.03;;;;;;;-1.90;90.58;99194.16;5033066;28;20206;-82
2023/03/12 05:21:03;;;;;;;2.57;2.20;;;;;;;-1.89;90.93;99187.94;5012667;28;20198;-81
2023/03/12 05:23:30;;;;;;;3.70;2.90;;;;;;;-1.94;91.72;99202.50;5017429;28;20202;-82
2023/03/12 05:25:58;;;;;;;4.73;3.00;;;;;;;-1.96;91.82;99205.25;5034120;28;20292;-81
2023/03/12 05:28:27;;;;;;;4.20;2.90;;;;;;;-1.94;92.61;99205.94;5013522;28;20202;-81
2023/03/12 05:31:00;;;;;;;5.63;3.57;;;;;;;-1.91;92.54;99210.88;5015243;28;20676;-83
2023/03/12 05:33:29;;;;;;;5.13;3.60;;;;;;;-1.87;92.93;99220.09;5029208;28;20736;-81
2023/03/12 05:35:58;;;;;;;8.97;6.33;;;;;;;-1.78;92.57;99215.78;5017228;28;20221;-83
2023/03/12 05:38:25;;;;;;;13.03;8.80;;;;;;;-1.76;92.73;99213.81;5017549;28;20250;-81
2023/03/12 05:40:58;;;;;;;13.77;8.40;;;;;;;-1.57;92.85;99215.44;5017048;28;20678;-81
2023/03/12 05:43:28;;;;;;;10.07;7.60;;;;;;;-1.49;92.54;99212.88;5013762;28;20236;-81
2023/03/12 05:45:59;;;;;;;9.57;6.60;;;;;;;-1.48;92.56;99219.78;5017226;28;20186;-81
2023/03/12 05:48:27;;;;;;;5.17;3.93;;;;;;;-1.46;92.96;99229.16;5033412;28;20198;-81
2023/03/12 05:50:54;;;;;;;8.30;6.40;;;;;;;-1.34;93.21;99235.00;5017250;28;20579;-81
2023/03/12 05:53:21;;;;;;;8.10;6.00;;;;;;;-1.16;93.17;99237.56;5004502;28;20202;-80
2023/03/12 05:55:48;;;;;;;10.30;6.50;;;;;;;-1.09;92.68;99242.06;5016791;28;20210;-82
2023/03/12 05:58:15;;;;;;;8.83;6.27;;;;;;;-0.94;92.59;99245.78;5031776;28;20205;-82
2023/03/12 06:00:43;;;;;;;8.80;6.23;;;;;;;-0.71;92.12;99251.31;5033389;28;20241;-81
2023/03/12 06:03:11;;;;;;;8.67;5.50;;;;;;;-0.53;91.49;99252.06;5032928;28;20205;-82
2023/03/12 06:05:42;;;;;;;6.13;4.57;;;;;;;-0.47;90.65;99258.50;5015184;28;20194;-81
2023/03/12 06:08:09;;;;;;;7.50;4.53;;;;;;;-0.32;90.55;99256.91;5034669;28;20191;-81
2023/03/12 06:10:38;;;;;;;7.40;5.60;;;;;;;-0.15;90.27;99261.25;5016936;28;20222;-81
2023/03/12 06:13:05;;;;;;;8.33;6.00;;;;;;;0.03;88.72;99266.41;5027243;28;20293;-83
2023/03/12 06:15:32;;;;;;;6.17;4.83;;;;;;;0.15;88.05;99251.91;5016493;28;20233;-82
2023/03/12 06:17:59;;;;;;;7.40;5.23;;;;;;;0.28;87.28;99259.38;5029778;28;20675;-80
2023/03/12 06:20:26;;;;;;;7.67;5.20;;;;;;;0.41;87.25;99255.25;5032911;28;20229;-82
2023/03/12 06:22:53;;;;;;;7.37;5.03;;;;;;;0.61;85.91;99257.53;5032755;28;20241;-82
2023/03/12 06:25:19;;;;;;;5.80;4.30;;;;;;;0.76;84.94;99261.16;5033809;28;20186;-86
2023/03/12 06:27:46;;;;;;;6.73;4.57;;;;;;;0.86;84.71;99260.03;5028539;28;20240;-81
2023/03/12 06:30:13;;;;;;;4.83;3.30;;;;;;;1.03;82.46;99258.16;5016175;28;20296;-81
2023/03/12 06:32:40;;;;;;;3.80;2.60;;;;;;;1.21;81.96;99260.63;5016209;28;20230;-84
2023/03/12 06:35:07;;;;;;;2.43;1.80;;;;;;;1.39;80.98;99258.59;5033723;28;20202;-82
2023/03/12 06:37:34;;;;;;;4.00;2.43;;;;;;;1.52;80.56;99264.16;5016153;28;20186;-84
2023/03/12 06:40:01;;;;;;;5.40;2.27;;;;;;;1.65;80.29;99268.88;5016572;28;20198;-85
2023/03/12 06:42:27;;;;;;;3.03;2.17;;;;;;;1.79;79.32;99270.78;5034149;28;20217;-82
2023/03/12 06:44:54;;;;;;;2.57;1.90;;;;;;;1.99;76.31;99273.84;5033932;28;20248;-82
2023/03/12 06:47:21;;;;;;;2.10;1.57;;;;;;;2.05;75.74;99279.25;5032524;28;20261;-82
2023/03/12 06:49:48;;;;;;;3.20;1.60;;;;;;;2.24;74.15;99283.25;5024383;28;20642;-81
2023/03/12 06:52:14;;;;;;;2.90;1.50;;;;;;;2.22;73.46;99282.63;5015010;28;20210;-83
2023/03/12 06:54:41;;;;;;;2.73;1.90;;;;;;;2.34;72.72;99283.03;4994492;28;20234;-81
2023/03/12 06:57:08;;;;;;;3.10;2.00;;;;;;;2.54;72.44;99276.28;5029794;28;20230;-81
2023/03/12 06:59:35;;;;;;;3.60;1.53;;;;;;;2.50;71.53;99275.84;5014651;28;20226;-81
2023/03/12 07:02:02;;;;;;;4.17;2.00;;;;;;;2.62;71.35;99277.06;5015917;28;20202;-85
2023/03/12 07:04:28;;;;;;;2.20;1.80;;;;;;;2.74;71.57;99271.34;5028597;28;20205;-84
2023/03/12 07:06:55;;;;;;;2.17;1.70;;;;;;;2.90;70.96;99273.84;5019063;28;20190;-82
2023/03/12 07:09:22;;;;;;;3.37;1.97;;;;;;;2.80;70.00;99284.66;5033258;28;20220;-82
2023/03/12 07:11:48;;;;;;;2.10;1.90;;;;;;;2.98;69.24;99287.84;5030863;28;20244;-83
2023/03/12 07:14:15;;;;;;;2.70;1.83;;;;;;;2.85;69.09;99281.50;5015122;28;20354;-81
2023/03/12 07:16:43;;;;;;;3.07;1.90;;;;;;;3.09;69.17;99289.22;5028758;28;20253;-81
2023/03/12 07:19:10;;;;;;;2.93;1.70;;;;;;;3.27;68.15;99291.50;5030153;28;20210;-82
2023/03/12 07:21:37;;;;;;;2.17;1.87;;;;;;;3.45;67.62;99289.38;5027681;28;20284;-82
2023/03/12 07:24:06;;;;;;;3.47;1.90;;;;;;;3.50;67.54;99292.25;5031630;28;20186;-82
2023/03/12 07:26:34;;;;;;;2.77;1.97;;;;;;;3.57;67.11;99287.06;5030375;28;20194;-83
2023/03/12 07:29:03;;;;;;;2.23;1.60;;;;;;;3.62;67.40;99288.16;5026483;28;20199;-81
2023/03/12 07:31:30;;;;;;;2.20;1.80;;;;;;;3.52;66.21;99285.78;5018139;28;20244;-82
2023/03/12 07:33:57;;;;;;;2.97;2.00;;;;;;;3.72;66.52;99286.06;5031489;28;20206;-82
2023/03/12 07:36:24;;;;;;;3.03;2.03;;;;;;;3.82;66.95;99291.09;5029455;28;20205;-81
2023/03/12 07:38:51;;;;;;;2.63;1.73;;;;;;;3.65;65.71;99294.91;5032715;28;20203;-81
2023/03/12 07:41:18;;;;;;;3.73;1.90;;;;;;;3.91;66.20;99293.44;4998369;28;20292;-82
2023/03/12 07:43:44;;;;;;;4.70;2.00;;;;;;;4.04;65.53;99299.91;5006375;28;20194;-81
2023/03/12 07:46:11;;;;;;;2.80;1.70;;;;;;;4.10;64.68;99302.66;5025250;28;20193;-81
2023/03/12 07:48:38;;;;;;;2.63;1.83;;;;;;;3.91;65.04;99304.06;5028595;28;20221;-81
2023/03/12 07:51:09;;;;;;;3.13;1.87;;;;;;;4.26;65.20;99305.06;5017605;28;20264;-83
2023/03/12 07:53:35;;;;;;;3.23;2.10;;;;;;;4.38;64.89;99290.31;5010825;28;20198;-81
2023/03/12 07:56:02;;;;;;;3.60;2.07;;;;;;;4.26;63.75;99297.13;5030913;28;20233;-80
2023/03/12 07:58:29;;;;;;;2.00;1.80;;;;;;;4.37;63.95;99307.25;5016249;28;20209;-82
2023/03/12 08:00:56;;;;;;;2.87;2.10;;;;;;;4.57;64.02;99302.16;5031117;28;20273;-83
2023/03/12 08:03:23;;;;;;;1.97;1.73;;;;;;;4.30;63.77;99303.69;5031203;28;20198;-82
2023/03/12 08:06:00;;;;;;;2.17;1.90;;;;;;;4.33;64.03;99313.13;5031155;28;20571;-80
2023/03/12 08:08:27;;;;;;;3.23;1.80;;;;;;;4.16;64.77;99303.72;5027517;28;20198;-82
2023/03/12 08:10:54;;;;;;;2.00;1.67;;;;;;;4.40;63.47;99304.22;5031999;28;20210;-80
2023/03/12 08:13:22;;;;;;;2.80;2.10;;;;;;;4.63;63.27;99305.84;5014529;28;20238;-81
2023/03/12 08:15:53;;;;;;;2.10;1.90;;;;;;;4.76;62.88;99311.28;5015689;28;20210;-81
2023/03/12 08:18:20;;;;;;;3.77;2.30;;;;;;;4.69;63.39;99300.63;5019301;28;20198;-81
2023/03/12 08:20:53;;;;;;;3.47;2.10;;;;;;;4.84;63.45;99309.34;5021345;28;20247;-81
2023/03/12 08:23:24;;;;;;;2.60;1.97;;;;;;;4.77;63.22;99307.63;5036694;28;20190;-84
2023/03/12 08:25:51;;;;;;;2.37;2.00;;;;;;;5.02;63.19;99305.41;4999554;28;20702;-81
2023/03/12 08:28:19;;;;;;;2.53;2.00;;;;;;;4.95;62.32;99305.34;5034908;28;20230;-85
2023/03/12 08:30:47;;;;;;;2.30;1.93;;;;;;;5.15;62.01;99302.84;5034986;28;20238;-85
2023/03/12 08:33:14;;;;;;;2.90;2.10;;;;;;;5.25;62.16;99300.69;5032997;28;20190;-84
2023/03/12 08:35:41;;;;;;;4.20;2.20;;;;;;;5.16;60.99;99307.97;5035903;28;20289;-84
2023/03/12 08:38:08;;;;;;;2.93;2.40;;;;;;;5.30;61.17;99298.28;5010711;28;20214;-83
2023/03/12 08:40:35;;;;;;;2.33;2.13;;;;;;;5.15;61.41;99301.03;5018664;28;20226;-84
2023/03/12 08:43:01;;;;;;;2.77;1.90;;;;;;;5.24;61.31;99301.69;5018429;28;20259;-85
2023/03/12 08:45:31;;;;;;;2.57;2.00;;;;;;;5.17;61.29;99300.84;5034924;28;20217;-86
2023/03/12 08:47:58;;;;;;;3.07;2.33;;;;;;;5.51;61.05;99308.00;5018910;28;20301;-85
2023/03/12 08:50:28;;;;;;;2.50;2.17;;;;;;;5.74;61.07;99308.53;5035649;28;20218;-85
2023/03/12 08:52:55;;;;;;;4.70;2.20;;;;;;;5.89;61.52;99317.25;5019520;28;20204;-83
2023/03/12 08:55:21;;;;;;;2.60;2.10;;;;;;;5.98;60.93;99302.78;5018641;28;20245;-83
2023/03/12 08:57:48;;;;;;;2.57;2.37;;;;;;;5.96;59.53;99306.66;5035068;28;20740;-86
2023/03/12 09:00:16;;;;;;;2.63;2.03;;;;;;;6.15;59.21;99305.94;5017159;28;20318;-84
2023/03/12 09:02:44;;;;;;;4.00;2.03;;;;;;;6.18;59.44;99303.69;5035437;28;20297;-83
2023/03/12 09:05:11;;;;;;;3.07;2.40;;;;;;;5.95;59.40;99305.84;5035016;28;20573;-83
2023/03/12 09:07:41;;;;;;;2.53;2.10;;;;;;;5.84;58.93;99303.69;5017261;28;20663;-85
2023/03/12 09:10:08;;;;;;;3.50;3.20;;;;;;;6.07;58.37;99314.06;5019060;28;20730;-85
2023/03/12 09:12:35;;;;;;;3.07;2.20;;;;;;;6.25;58.40;99308.22;5018707;28;20318;-85
2023/03/12 09:15:02;;;;;;;4.10;2.30;;;;;;;6.05;58.00;99306.31;5014301;28;20325;-85
2023/03/12 09:17:32;;;;;;;2.30;2.10;;;;;;;5.85;58.31;99305.34;5018616;28;20265;-83
2023/03/12 09:19:59;;;;;;;3.77;2.10;;;;;;;6.00;57.87;99314.06;5014759;28;20229;-86
2023/03/12 09:22:28;;;;;;;3.10;2.57;;;;;;;6.26;57.12;99308.00;5011417;28;20187;-87
2023/03/12 09:24:55;;;;;;;2.97;2.30;;;;;;;6.42;57.23;99312.97;5034381;28;20225;-84
2023/03/12 09:27:22;;;;;;;2.73;2.10;;;;;;;6.73;57.03;99301.78;5012541;28;20336;-83
2023/03/12 09:29:50;;;;;;;3.40;2.27;;;;;;;6.74;56.26;99307.91;5014955;28;20293;-82
2023/03/12 09:32:28;;;;;;;2.77;2.00;;;;;;;6.94;55.68;99301.59;5030552;28;20692;-85
2023/03/12 09:34:55;;;;;;;3.30;2.30;;;;;;;6.82;55.88;99302.38;5033920;28;20209;-81
2023/03/12 09:37:22;;;;;;;2.27;2.07;;;;;;;7.00;55.09;99297.28;5034587;28;20576;-83
2023/03/12 09:39:50;;;;;;;2.97;2.30;;;;;;;7.25;54.29;99300.97;5020135;28;20691;-86
2023/03/12 09:42:23;;;;;;;2.70;2.30;;;;;;;7.51;53.89;99295.59;5003018;28;20202;-85
2023/03/12 09:44:51;;;;;;;2.20;2.00;;;;;;;7.27;53.70;99295.44;5001759;28;20643;-86
2023/03/12 09:47:26;;;;;;;3.20;1.90;;;;;;;7.77;53.88;99302.75;5018155;28;20210;-83
2023/03/12 09:50:03;;;;;;;2.33;2.13;;;;;;;8.16;52.91;99306.31;5017887;28;20198;-83
2023/03/12 09:52:33;;;;;;;4.53;2.20;;;;;;;8.13;51.36;99306.72;5015709;28;20206;-87
2023/03/12 09:55:20;;;;;;;2.80;2.13;;;;;;;8.32;50.96;99293.31;5033978;28;20186;-84
2023/03/12 09:57:50;;;;;;;2.57;1.83;;;;;;;8.56;51.30;99294.44;5021533;28;20686;-85
2023/03/12 10:00:23;;;;;;;3.30;2.10;;;;;;;8.62;51.49;99287.41;5017762;28;20198;-84
2023/03/12 10:03:14;;;;;;;3.10;2.00;;;;;;;8.54;51.76;99290.34;5018410;28;20249;-85
2023/03/12 10:06:03;;;;;;;3.87;1.80;;;;;;;8.80;50.67;99288.31;5035009;28;20193;-85
2023/03/12 10:09:07;;;;;;;2.90;2.07;;;;;;;8.77;49.94;99285.28;5032641;28;20240;-85
2023/03/12 10:12:14;;;;;;;4.17;2.40;;;;;;;8.32;50.11;99285.31;5032403;28;20269;-84
2023/03/12 10:14:56;;;;;;;2.20;1.83;;;;;;;8.72;51.43;99283.25;5003736;28;20233;-84
2023/03/12 10:17:51;;;;;;;3.20;2.13;;;;;;;8.90;49.53;99279.00;5017690;28;20209;-85
2023/03/12 10:20:21;;;;;;;2.97;2.00;;;;;;;9.02;49.85;99271.91;5028924;28;20194;-83
2023/03/12 10:23:16;;;;;;;3.43;2.87;;;;;;;9.13;49.69;99274.69;5033398;28;20226;-83
2023/03/12 10:25:57;;;;;;;3.23;2.30;;;;;;;8.51;49.56;99269.41;5031672;28;20190;-84
2023/03/12 10:28:42;;;;;;;3.20;2.00;;;;;;;8.90;49.12;99268.31;5014578;28;20191;-83
2023/03/12 10:31:22;;;;;;;3.30;2.57;;;;;;;9.04;49.54;99269.84;5016578;28;20210;-85
2023/03/12 10:33:59;;;;;;;2.70;1.90;;;;;;;9.23;49.56;99277.69;4995879;28;20288;-86
2023/03/12 10:36:38;;;;;;;2.90;2.03;;;;;;;9.22;47.72;99269.88;5033142;28;20225;-85
2023/03/12 10:39:13;;;;;;;4.47;2.30;;;;;;;8.99;47.92;99262.47;5012510;28;20289;-82
2023/03/12 10:41:44;;;;;;;2.30;2.00;;;;;;;8.76;47.82;99264.94;5028246;28;20194;-85
2023/03/12 10:44:19;;;;;;;2.90;2.03;;;;;;;8.74;48.83;99269.66;5017145;28;20194;-84
2023/03/12 10:46:58;;;;;;;2.90;2.37;;;;;;;8.48;48.20;99256.47;5016757;28;20201;-83
2023/03/12 10:49:28;;;;;;;3.17;2.23;;;;;;;8.61;48.34;99243.03;5029545;28;20205;-83
2023/03/12 10:52:01;;;;;;;4.60;2.40;;;;;;;8.62;48.88;99248.19;5013510;28;20240;-86
2023/03/12 10:54:31;;;;;;;3.03;2.20;;;;;;;8.87;49.27;99250.03;5034246;28;20182;-85
2023/03/12 10:56:59;;;;;;;3.30;2.23;;;;;;;9.01;48.39;99260.41;5032727;28;20214;-84
2023/03/12 10:59:28;;;;;;;2.47;2.10;;;;;;;8.89;48.56;99250.63;5033136;28;20187;-85
2023/03/12 11:01:58;;;;;;;3.30;2.43;;;;;;;9.09;47.70;99240.63;5032976;28;20217;-84
2023/03/12 11:04:31;;;;;;;4.50;2.23;;;;;;;8.99;47.75;99250.97;5032828;28;20295;-83
2023/03/12 11:07:26;;;;;;;3.93;2.23;;;;;;;9.24;47.37;99241.06;5021666;28;20198;-87
2023/03/12 11:10:05;;;;;;;2.33;2.13;;;;;;;9.51;46.17;99239.78;5030237;28;20225;-82
2023/03/12 11:12:34;;;;;;;3.80;2.30;;;;;;;9.63;45.67;99232.66;5025974;28;20208;-84
2023/03/12 11:15:22;;;;;;;3.33;2.40;;;;;;;9.69;45.65;99228.28;4997068;28;20284;-83
2023/03/12 11:17:50;;;;;;;3.77;2.30;;;;;;;9.57;45.36;99224.69;5029830;28;20237;-80
2023/03/12 11:20:18;;;;;;;2.60;2.40;;;;;;;9.50;45.22;99222.09;5015980;28;20293;-81
2023/03/12 11:22:45;;;;;;;2.70;2.37;;;;;;;9.65;45.42;99221.75;5018978;28;20201;-81
2023/03/12 11:25:23;;;;;;;2.57;2.27;;;;;;;9.76;45.71;99212.94;4990511;28;20223;-80
2023/03/12 11:27:54;;;;;;;2.83;2.33;;;;;;;9.97;45.17;99203.66;5016479;28;20196;-82
2023/03/12 11:30:26;;;;;;;3.07;2.23;;;;;;;10.24;44.51;99196.09;5034695;28;20279;-82
2023/03/12 11:32:56;;;;;;;2.70;1.97;;;;;;;10.52;45.01;99186.41;5014303;28;20198;-81
2023/03/12 11:35:34;;;;;;;2.60;2.40;;;;;;;11.03;44.81;99201.03;5010572;28;20191;-80
2023/03/12 11:38:06;;;;;;;3.73;2.10;;;;;;;11.41;44.13;99193.31;5011621;28;20209;-81
2023/03/12 11:40:54;;;;;;;2.80;2.07;;;;;;;11.73;43.48;99184.88;5031738;28;20237;-81
2023/03/12 11:43:46;;;;;;;3.10;2.67;;;;;;;11.77;42.35;99180.66;5015120;28;20202;-80
2023/03/12 11:46:28;;;;;;;3.47;2.33;;;;;;;11.80;43.58;99177.53;5027269;28;20202;-80
2023/03/12 11:48:56;;;;;;;2.53;2.30;;;;;;;12.00;42.96;99185.13;5045781;28;20206;-80
2023/03/12 11:51:26;;;;;;;3.73;2.40;;;;;;;12.18;42.57;99175.00;5009342;28;20202;-80
2023/03/12 11:54:20;;;;;;;3.20;2.60;;;;;;;12.24;42.45;99167.88;5032606;28;20202;-79